Time;durP1;ratioP1;P1;durP2;ratioP2;P2;SDS_P1;SDS_P2;PMS_P1;PMS_P2;Temp;Humidity;BMP_temperature;BMP_pressure;BME280_temperature;BME280_humidity;BME280_pressure;Samples;Min_cycle;Max_cycle;Signal;HPM_P1;HPM_P2
2023/10/04 00:01:39;;;;;;;8.20;3.47;;;;;;;16.79;91.84;101268.47;5058611;28;20056;-73
2023/10/04 00:04:05;;;;;;;5.65;3.88;;;;;;;16.78;91.36;101272.09;5065685;28;20464;-73
2023/10/04 00:06:31;;;;;;;6.45;3.90;;;;;;;16.81;91.63;101269.13;5070350;28;20036;-73
2023/10/04 00:09:03;;;;;;;4.50;3.03;;;;;;;16.78;91.13;101275.53;5067576;28;20486;-72
2023/10/04 00:11:28;;;;;;;5.18;3.53;;;;;;;16.71;91.06;101277.19;5067845;28;20376;-72
2023/10/04 00:13:54;;;;;;;5.50;2.90;;;;;;;16.70;90.50;101278.16;5068407;28;20021;-73
2023/10/04 00:16:19;;;;;;;5.30;3.58;;;;;;;16.70;90.72;101278.16;5068631;28;20111;-73
2023/10/04 00:18:45;;;;;;;7.47;3.35;;;;;;;16.64;91.63;101281.44;5067476;28;20126;-71
2023/10/04 00:21:11;;;;;;;4.80;3.65;;;;;;;16.54;92.74;101283.41;5067042;28;20028;-73
2023/10/04 00:23:38;;;;;;;6.60;4.47;;;;;;;16.48;94.69;101284.06;5063714;28;20059;-72
2023/10/04 00:26:07;;;;;;;7.90;4.35;;;;;;;16.40;96.63;101291.94;5066403;28;20028;-73
2023/10/04 00:28:32;;;;;;;7.38;4.63;;;;;;;16.34;98.53;101282.88;5062050;28;20036;-73
2023/10/04 00:30:57;;;;;;;6.43;4.40;;;;;;;16.26;99.90;101286.31;5065101;28;20850;-73
2023/10/04 00:33:23;;;;;;;6.47;4.20;;;;;;;16.23;99.02;101291.91;5062818;28;20082;-73
2023/10/04 00:35:51;;;;;;;9.90;4.45;;;;;;;16.24;98.79;101288.28;5059814;28;20029;-73
2023/10/04 00:38:19;;;;;;;6.45;4.45;;;;;;;16.25;97.96;101289.94;5065274;28;20086;-73
2023/10/04 00:40:47;;;;;;;5.22;4.32;;;;;;;16.27;97.33;101290.59;5058157;28;20048;-73
2023/10/04 00:43:14;;;;;;;5.80;4.00;;;;;;;16.29;96.59;101290.44;5063566;28;20033;-73
2023/10/04 00:45:44;;;;;;;6.28;3.78;;;;;;;16.36;95.28;101283.56;5060467;28;20051;-73
2023/10/04 00:48:15;;;;;;;7.43;4.70;;;;;;;16.38;95.24;101284.22;5060810;28;20083;-72
2023/10/04 00:50:41;;;;;;;6.53;4.22;;;;;;;16.30;96.24;101286.00;5061006;28;20507;-73
2023/10/04 00:53:14;;;;;;;7.95;4.03;;;;;;;16.19;97.02;101295.00;5057185;28;20112;-73
2023/10/04 00:55:42;;;;;;;3.85;3.42;;;;;;;16.12;97.91;101288.75;5056503;28;20468;-72
2023/10/04 00:58:09;;;;;;;7.15;4.80;;;;;;;16.04;98.30;101291.38;5064835;28;20032;-72
2023/10/04 01:00:45;;;;;;;8.25;3.95;;;;;;;16.09;98.04;101279.38;5063908;28;20115;-72
2023/10/04 01:03:11;;;;;;;7.15;4.60;;;;;;;16.16;97.05;101280.38;5064525;28;20041;-72
2023/10/04 01:05:40;;;;;;;5.88;4.30;;;;;;;16.27;95.90;101287.16;5062122;28;20038;-72
2023/10/04 01:08:09;;;;;;;6.82;4.15;;;;;;;16.33;95.27;101280.41;5055693;28;20044;-72
2023/10/04 01:10:37;;;;;;;7.20;4.50;;;;;;;16.31;95.13;101275.31;5061131;28;20082;-72
2023/10/04 01:13:09;;;;;;;9.50;4.25;;;;;;;16.31;94.92;101280.56;5064483;28;20085;-73
2023/10/04 01:15:42;;;;;;;5.03;3.67;;;;;;;16.29;95.08;101279.09;5058225;28;20034;-73
2023/10/04 01:18:11;;;;;;;4.55;3.38;;;;;;;16.27;94.74;101277.44;5079384;28;20048;-72
2023/10/04 01:20:38;;;;;;;5.38;4.22;;;;;;;16.31;94.33;101274.50;5068368;28;20425;-72
2023/10/04 01:23:10;;;;;;;5.90;3.58;;;;;;;16.36;93.95;101266.94;5054652;28;20029;-72
2023/10/04 01:25:43;;;;;;;6.45;3.47;;;;;;;16.35;93.81;101270.56;5059827;28;20033;-72
2023/10/04 01:28:16;;;;;;;6.00;3.65;;;;;;;16.37;93.74;101273.84;5057571;28;20048;-72
2023/10/04 01:30:44;;;;;;;5.65;3.58;;;;;;;16.38;93.32;101271.06;5058390;28;20425;-72
2023/10/04 01:33:16;;;;;;;4.78;3.72;;;;;;;16.41;93.07;101272.53;5064114;28;20147;-72
2023/10/04 01:35:46;;;;;;;5.57;3.45;;;;;;;16.42;93.14;101274.19;5053529;28;20494;-71
2023/10/04 01:38:16;;;;;;;4.53;3.60;;;;;;;16.38;93.64;101268.44;5067077;28;20028;-72
2023/10/04 01:40:43;;;;;;;7.65;4.13;;;;;;;16.37;93.64;101266.78;5067401;28;20044;-72
2023/10/04 01:43:18;;;;;;;8.18;3.90;;;;;;;16.37;93.76;101264.16;5061795;28;20055;-73
2023/10/04 01:45:47;;;;;;;4.43;3.47;;;;;;;16.33;94.35;101269.91;5072163;28;20028;-74
2023/10/04 01:48:15;;;;;;;4.93;3.47;;;;;;;16.30;95.07;101264.97;5067767;28;20024;-74
2023/10/04 01:50:46;;;;;;;4.15;3.75;;;;;;;16.33;94.81;101260.19;5066588;28;20058;-75
2023/10/04 01:53:13;;;;;;;6.97;3.85;;;;;;;16.27;95.16;101261.66;5067602;28;20369;-73
2023/10/04 01:55:40;;;;;;;7.88;3.97;;;;;;;16.13;95.69;101258.84;5070087;28;20119;-71
2023/10/04 01:58:07;;;;;;;5.95;3.08;;;;;;;16.03;96.21;101261.66;5071605;28;20028;-72
2023/10/04 02:00:33;;;;;;;5.05;3.67;;;;;;;15.92;97.34;101259.31;5068882;28;20040;-72
2023/10/04 02:03:01;;;;;;;7.30;3.72;;;;;;;15.87;97.96;101253.72;5069549;28;20040;-72
2023/10/04 02:05:28;;;;;;;5.18;3.55;;;;;;;15.84;98.45;101254.84;5068345;28;20120;-72
2023/10/04 02:07:56;;;;;;;6.75;4.00;;;;;;;15.74;98.72;101253.31;5069482;28;20578;-72
2023/10/04 02:10:22;;;;;;;5.82;3.85;;;;;;;15.69;100.00;101250.34;5065133;28;20052;-73
2023/10/04 02:12:50;;;;;;;3.88;3.33;;;;;;;15.62;99.93;101242.28;5066431;28;20025;-72
2023/10/04 02:15:17;;;;;;;6.47;4.18;;;;;;;15.58;100.00;101254.09;5069129;28;20068;-72
2023/10/04 02:17:44;;;;;;;4.57;3.13;;;;;;;15.55;100.00;101249.13;5066871;28;20029;-72
2023/10/04 02:20:13;;;;;;;5.47;4.10;;;;;;;15.51;100.00;101256.50;5069547;28;20032;-72
2023/10/04 02:22:39;;;;;;;5.35;3.97;;;;;;;15.59;100.00;101247.88;5064286;28;20127;-72
2023/10/04 02:25:11;;;;;;;5.55;4.10;;;;;;;15.58;100.00;101256.75;5067002;28;20383;-72
2023/10/04 02:27:37;;;;;;;5.07;3.78;;;;;;;15.53;100.00;101251.09;5066285;28;20032;-72
2023/10/04 02:30:13;;;;;;;6.88;3.83;;;;;;;15.50;100.00;101252.22;5066122;28;20056;-72
2023/10/04 02:32:41;;;;;;;7.55;4.40;;;;;;;15.37;100.00;101259.72;5062861;28;20040;-72
2023/10/04 02:35:07;;;;;;;5.63;3.65;;;;;;;15.32;100.00;101251.47;5068155;28;20040;-72
2023/10/04 02:37:34;;;;;;;5.22;3.70;;;;;;;15.36;100.00;101254.63;5067041;28;20032;-72
2023/10/04 02:40:01;;;;;;;5.20;4.15;;;;;;;15.42;100.00;101264.50;5065426;28;20104;-73
2023/10/04 02:42:27;;;;;;;7.55;4.88;;;;;;;15.38;100.00;101269.22;5066933;28;20037;-72
2023/10/04 02:44:52;;;;;;;8.27;4.60;;;;;;;15.48;100.00;101264.69;5066651;28;20456;-72
2023/10/04 02:47:18;;;;;;;6.95;3.97;;;;;;;15.57;100.00;101266.41;5066666;28;20119;-71
2023/10/04 02:49:43;;;;;;;6.32;4.28;;;;;;;15.71;99.22;101266.78;5068244;28;20025;-72
2023/10/04 02:52:13;;;;;;;6.90;4.07;;;;;;;15.79;98.47;101267.63;5066140;28;20553;-73
2023/10/04 02:54:39;;;;;;;5.72;4.10;;;;;;;15.85;99.00;101271.44;5064021;28;20932;-72
2023/10/04 02:57:07;;;;;;;8.32;5.70;;;;;;;15.81;100.00;101270.09;5065078;28;20053;-71
2023/10/04 02:59:32;;;;;;;7.20;5.07;;;;;;;15.76;100.00;101272.38;5070823;28;20524;-71
2023/10/04 03:01:58;;;;;;;6.32;4.45;;;;;;;15.70;100.00;101271.22;5067513;28;20033;-71
2023/10/04 03:04:24;;;;;;;9.82;5.30;;;;;;;15.70;100.00;101273.00;5062134;28;20090;-72
2023/10/04 03:06:51;;;;;;;7.78;5.05;;;;;;;15.71;100.00;101274.66;5057971;28;20067;-71
2023/10/04 03:09:17;;;;;;;11.23;5.30;;;;;;;15.74;100.00;101279.59;5060363;28;20115;-73
2023/10/04 03:11:42;;;;;;;8.23;4.97;;;;;;;15.77;100.00;101279.28;5059045;28;20025;-72
2023/10/04 03:14:11;;;;;;;6.20;4.80;;;;;;;15.79;100.00;101285.19;5060490;28;20385;-72
2023/10/04 03:16:37;;;;;;;6.15;5.03;;;;;;;15.81;100.00;101276.19;5060995;28;20447;-72
2023/10/04 03:19:03;;;;;;;9.60;5.47;;;;;;;15.87;100.00;101279.97;5064959;28;20136;-72
2023/10/04 03:21:33;;;;;;;7.55;4.63;;;;;;;15.90;100.00;101279.66;5062425;28;20411;-72
2023/10/04 03:23:58;;;;;;;6.55;4.32;;;;;;;15.93;99.87;101279.34;5065934;28;20040;-72
2023/10/04 03:26:24;;;;;;;8.38;4.88;;;;;;;15.96;99.46;101278.22;5062172;28;20025;-72
2023/10/04 03:28:49;;;;;;;5.22;3.67;;;;;;;15.96;99.12;101279.03;5060952;28;20774;-72
2023/10/04 03:31:16;;;;;;;7.15;5.15;;;;;;;16.01;98.86;101281.19;5058208;28;20437;-72
2023/10/04 03:33:45;;;;;;;6.20;4.90;;;;;;;16.04;98.31;101286.94;5059131;28;20090;-71
2023/10/04 03:36:14;;;;;;;6.47;4.25;;;;;;;16.09;97.75;101284.63;5063628;28;20039;-72
2023/10/04 03:38:41;;;;;;;5.82;4.45;;;;;;;16.14;96.91;101292.84;5060161;28;20047;-71
2023/10/04 03:41:06;;;;;;;7.28;4.80;;;;;;;16.22;97.07;101292.88;5065905;28;20574;-72
2023/10/04 03:43:35;;;;;;;7.18;4.45;;;;;;;16.22;97.34;101299.94;5068731;28;20064;-71
2023/10/04 03:46:08;;;;;;;7.35;5.53;;;;;;;16.14;98.53;101292.84;5070961;28;20035;-72
2023/10/04 03:48:37;;;;;;;5.78;4.47;;;;;;;16.05;99.46;101293.84;5069568;28;20060;-71
2023/10/04 03:51:03;;;;;;;9.02;5.10;;;;;;;15.97;100.00;101296.44;5070135;28;20038;-72
2023/10/04 03:53:29;;;;;;;10.60;6.00;;;;;;;15.91;100.00;101299.72;5068442;28;20020;-70
2023/10/04 03:55:55;;;;;;;7.97;5.60;;;;;;;15.82;100.00;101295.41;5067901;28;20400;-71
2023/10/04 03:58:20;;;;;;;7.65;5.32;;;;;;;15.77;100.00;101302.94;5069224;28;20060;-71
2023/10/04 04:00:46;;;;;;;11.45;6.32;;;;;;;15.76;100.00;101306.53;5068492;28;20054;-71
2023/10/04 04:03:12;;;;;;;7.05;5.13;;;;;;;15.74;100.00;101306.69;5068554;28;20051;-70
2023/10/04 04:05:44;;;;;;;8.02;6.07;;;;;;;15.70;100.00;101304.53;5067278;28;20524;-72
2023/10/04 04:08:12;;;;;;;8.75;6.25;;;;;;;15.73;100.00;101320.00;5070511;28;20043;-72
2023/10/04 04:10:37;;;;;;;8.15;5.35;;;;;;;15.75;100.00;101316.22;5067326;28;20036;-72
2023/10/04 04:13:04;;;;;;;8.32;5.35;;;;;;;15.76;100.00;101322.31;5065572;28;20074;-71
2023/10/04 04:15:33;;;;;;;7.43;5.55;;;;;;;15.83;100.00;101333.84;5069268;28;20063;-72
2023/10/04 04:17:59;;;;;;;8.70;5.70;;;;;;;15.88;100.00;101335.00;5067591;28;20021;-73
2023/10/04 04:20:26;;;;;;;9.20;5.10;;;;;;;15.89;100.00;101338.47;5066350;28;20033;-71
2023/10/04 04:22:55;;;;;;;6.55;5.25;;;;;;;15.90;100.00;101337.47;5065964;28;20029;-71
2023/10/04 04:25:26;;;;;;;6.85;4.72;;;;;;;15.88;100.00;101331.56;5065994;28;20036;-71
2023/10/04 04:27:53;;;;;;;7.57;5.30;;;;;;;15.86;100.00;101334.34;5063164;28;20029;-71
2023/10/04 04:30:28;;;;;;;12.02;6.30;;;;;;;15.86;100.00;101326.47;5061440;28;20526;-70
2023/10/04 04:32:57;;;;;;;9.57;5.95;;;;;;;15.88;100.00;101332.38;5064630;28;20068;-72
2023/10/04 04:37:57;;;;;;;8.07;6.07;;;;;;;15.91;100.00;101333.88;5065656;28;20049;-72
2023/10/04 04:40:30;;;;;;;7.90;5.90;;;;;;;15.95;100.00;101322.06;5062251;28;20036;-72
2023/10/04 04:43:03;;;;;;;7.50;6.18;;;;;;;16.02;100.00;101325.72;5062401;28;20028;-72
2023/10/04 04:45:29;;;;;;;10.65;5.95;;;;;;;16.06;100.00;101326.22;5062853;28;20035;-71
2023/10/04 04:47:55;;;;;;;8.95;6.03;;;;;;;16.10;100.00;101330.97;5058298;28;20028;-72
2023/10/04 04:50:24;;;;;;;7.97;5.50;;;;;;;16.18;99.79;101332.81;5063928;28;20032;-71
2023/10/04 04:52:51;;;;;;;7.63;5.22;;;;;;;16.23;99.25;101344.50;5069051;28;20083;-72
2023/10/04 04:55:16;;;;;;;7.82;5.63;;;;;;;16.26;99.22;101338.09;5061123;28;20021;-71
2023/10/04 04:57:42;;;;;;;9.18;5.53;;;;;;;16.32;98.86;101339.25;5060327;28;20037;-71
2023/10/04 05:02:52;;;;;;;10.18;6.35;;;;;;;16.37;98.74;101352.75;5065446;28;20518;-71
2023/10/04 05:05:20;;;;;;;10.90;5.65;;;;;;;16.41;98.24;101354.91;5063799;28;20032;-71
2023/10/04 05:07:47;;;;;;;6.88;4.78;;;;;;;16.48;97.67;101366.44;5057884;28;20029;-72
2023/10/04 05:10:13;;;;;;;8.90;5.68;;;;;;;16.43;98.17;101381.03;5061619;28;20530;-72
2023/10/04 05:12:38;;;;;;;7.18;4.85;;;;;;;16.27;98.74;101381.81;5067258;28;20118;-73
2023/10/04 05:15:21;;;;;;;8.68;5.82;;;;;;;16.22;99.50;101389.34;5062227;28;20021;-74
2023/10/04 05:17:48;;;;;;;9.40;6.28;;;;;;;16.34;99.43;101372.31;5060196;28;20032;-71
2023/10/04 05:20:18;;;;;;;7.68;5.32;;;;;;;16.41;98.88;101377.75;5062273;28;20028;-72
2023/10/04 05:22:43;;;;;;;8.90;5.95;;;;;;;16.42;98.75;101379.38;5054283;28;20065;-72
2023/10/04 05:25:08;;;;;;;8.15;5.50;;;;;;;16.42;98.79;101384.66;5065305;28;20061;-71
2023/10/04 05:27:36;;;;;;;7.95;6.03;;;;;;;16.49;97.85;101385.66;5062437;28;20085;-72
2023/10/04 05:30:03;;;;;;;8.50;5.63;;;;;;;16.49;98.02;101378.59;5054983;28;20037;-72
2023/10/04 05:32:29;;;;;;;8.10;5.80;;;;;;;16.52;98.00;101380.09;5064676;28;20036;-73
2023/10/04 05:34:55;;;;;;;9.07;6.10;;;;;;;16.58;97.51;101382.03;5058610;28;20025;-72
2023/10/04 05:37:20;;;;;;;11.43;6.13;;;;;;;16.61;97.30;101384.34;5057760;28;20118;-71
2023/10/04 05:39:46;;;;;;;9.35;5.55;;;;;;;16.63;97.29;101387.66;5054377;28;20095;-72
2023/10/04 05:42:11;;;;;;;9.38;5.20;;;;;;;16.62;97.95;101395.69;5054962;28;20055;-71
2023/10/04 05:44:38;;;;;;;12.32;6.85;;;;;;;16.59;98.23;101392.41;5055525;28;20392;-70
2023/10/04 05:47:05;;;;;;;7.97;6.20;;;;;;;16.60;98.34;101387.97;5056867;28;20028;-69
2023/10/04 05:49:31;;;;;;;8.82;5.18;;;;;;;16.62;98.38;101386.00;5065182;28;20033;-70
2023/10/04 05:51:57;;;;;;;8.95;5.93;;;;;;;16.66;97.94;101390.00;5052206;28;20476;-70
2023/10/04 05:54:23;;;;;;;10.45;5.82;;;;;;;16.71;98.02;101394.75;5058109;28;20028;-70
2023/10/04 05:56:49;;;;;;;8.75;6.75;;;;;;;16.77;97.43;101394.13;5060654;28;20041;-70
2023/10/04 05:59:14;;;;;;;9.68;6.50;;;;;;;16.81;97.02;101387.56;5057928;28;20032;-70
2023/10/04 06:01:41;;;;;;;8.23;5.55;;;;;;;17.03;94.88;101389.53;5064379;28;20480;-69
2023/10/04 06:04:07;;;;;;;14.90;6.65;;;;;;;17.16;93.93;101396.94;5067992;28;20514;-70
2023/10/04 06:06:32;;;;;;;8.75;5.47;;;;;;;17.15;94.44;101404.00;5052045;28;20041;-70
2023/10/04 06:08:59;;;;;;;9.43;5.72;;;;;;;17.07;94.95;101405.81;5067900;28;20029;-70
2023/10/04 06:11:25;;;;;;;19.58;9.30;;;;;;;17.03;95.54;101407.13;5066897;28;20062;-70
2023/10/04 06:13:50;;;;;;;10.20;6.03;;;;;;;17.03;95.19;101413.22;5072664;28;20032;-71
2023/10/04 06:16:19;;;;;;;6.35;5.13;;;;;;;17.05;95.24;101413.06;5069970;28;20051;-71
2023/10/04 06:18:47;;;;;;;6.95;4.75;;;;;;;17.13;94.66;101415.69;5068764;28;20033;-71
2023/10/04 06:21:16;;;;;;;7.78;5.55;;;;;;;17.24;94.51;101423.28;5069027;28;20422;-71
2023/10/04 06:23:43;;;;;;;7.13;4.70;;;;;;;17.31;94.65;101412.91;5067579;28;20496;-71
2023/10/04 06:26:09;;;;;;;7.03;4.72;;;;;;;17.35;94.63;101420.31;5068625;28;20071;-71
2023/10/04 06:28:35;;;;;;;9.20;5.13;;;;;;;17.40;94.43;101428.53;5067773;28;20056;-70
2023/10/04 06:31:02;;;;;;;7.88;4.85;;;;;;;17.49;93.45;101431.97;5070549;28;20028;-71
2023/10/04 06:33:28;;;;;;;8.20;5.45;;;;;;;17.55;92.72;101426.03;5067772;28;20032;-69
2023/10/04 06:35:53;;;;;;;6.13;5.00;;;;;;;17.64;91.66;101435.59;5068117;28;20032;-70
2023/10/04 06:38:20;;;;;;;9.35;4.93;;;;;;;17.74;90.93;101436.25;5069151;28;20119;-70
2023/10/04 06:40:46;;;;;;;9.00;4.97;;;;;;;17.74;91.29;101436.25;5069708;28;20048;-70
2023/10/04 06:43:14;;;;;;;6.10;4.65;;;;;;;17.70;91.93;101440.22;5074641;28;20422;-70
2023/10/04 06:45:40;;;;;;;7.47;4.63;;;;;;;17.71;91.10;101441.03;5069239;28;20049;-70
2023/10/04 06:48:06;;;;;;;8.25;4.80;;;;;;;17.72;91.65;101445.31;5070582;28;20041;-70
2023/10/04 06:50:35;;;;;;;6.15;4.93;;;;;;;17.75;91.45;101453.72;5068555;28;20037;-71
2023/10/04 06:53:03;;;;;;;6.00;4.13;;;;;;;17.78;91.53;101458.66;5070081;28;20027;-70
2023/10/04 06:55:30;;;;;;;7.03;4.72;;;;;;;17.83;90.83;101463.44;5069582;28;20039;-70
2023/10/04 06:57:56;;;;;;;7.68;4.43;;;;;;;17.85;91.40;101464.09;5067954;28;20504;-71
2023/10/04 07:00:29;;;;;;;5.55;4.35;;;;;;;17.83;91.62;101456.34;5068534;28;20090;-70
2023/10/04 07:02:58;;;;;;;10.32;4.72;;;;;;;17.80;91.80;101466.41;5068755;28;20397;-71
2023/10/04 07:05:26;;;;;;;6.35;4.10;;;;;;;17.78;92.31;101474.47;5067372;28;20123;-70
2023/10/04 07:07:53;;;;;;;6.85;3.75;;;;;;;17.74;92.86;101470.53;5067727;28;20546;-71
2023/10/04 07:10:23;;;;;;;5.22;3.95;;;;;;;17.71;93.25;101480.56;5068030;28;20037;-71
2023/10/04 07:12:52;;;;;;;5.65;3.67;;;;;;;17.71;93.46;101477.94;5066343;28;20609;-71
2023/10/04 07:15:19;;;;;;;4.78;3.63;;;;;;;17.71;93.64;101481.41;5068492;28;20082;-71
2023/10/04 07:17:47;;;;;;;9.30;4.30;;;;;;;17.73;93.97;101484.69;5067158;28;20052;-71
2023/10/04 07:20:15;;;;;;;5.10;4.00;;;;;;;17.76;94.11;101486.19;5067014;28;20105;-71
2023/10/04 07:22:43;;;;;;;8.13;4.55;;;;;;;17.74;94.43;101482.88;5066321;28;20028;-71
2023/10/04 07:25:09;;;;;;;8.30;4.35;;;;;;;17.74;94.53;101482.88;5066206;28;20436;-71
2023/10/04 07:27:35;;;;;;;5.68;4.00;;;;;;;17.76;94.90;101491.44;5068308;28;20064;-71
2023/10/04 07:30:01;;;;;;;11.13;5.10;;;;;;;17.80;94.64;101487.50;5068303;28;20144;-71
2023/10/04 07:32:28;;;;;;;7.53;4.68;;;;;;;17.87;94.55;101491.09;5067521;28;20086;-71
2023/10/04 07:34:54;;;;;;;7.00;4.60;;;;;;;17.91;94.08;101495.06;5064190;28;20063;-72
2023/10/04 07:37:20;;;;;;;8.02;4.03;;;;;;;17.99;93.83;101492.38;5071427;28;20063;-71
2023/10/04 07:39:46;;;;;;;3.95;2.97;;;;;;;18.12;93.40;101492.69;5061768;28;20044;-71
2023/10/04 07:42:12;;;;;;;5.13;3.28;;;;;;;18.30;92.53;101502.22;5066365;28;20036;-71
2023/10/04 07:44:37;;;;;;;4.13;2.63;;;;;;;18.51;90.85;101505.09;5061937;28;20047;-72
2023/10/04 07:47:03;;;;;;;4.25;1.70;;;;;;;18.81;87.07;101501.69;5063554;28;20025;-70
2023/10/04 07:49:29;;;;;;;4.40;2.05;;;;;;;19.27;84.05;101506.19;5068004;28;20033;-70
2023/10/04 07:51:55;;;;;;;4.22;1.73;;;;;;;19.52;81.03;101508.47;5063938;28;20136;-70
2023/10/04 07:54:21;;;;;;;7.80;1.30;;;;;;;19.81;79.47;101509.56;5062783;28;20507;-70
2023/10/04 07:56:48;;;;;;;4.35;1.25;;;;;;;19.96;78.61;101502.47;5060307;28;20136;-70
2023/10/04 07:59:15;;;;;;;3.97;1.25;;;;;;;20.17;75.21;101507.06;5065992;28;20037;-69
2023/10/04 08:01:40;;;;;;;3.67;1.00;;;;;;;20.52;73.38;101495.72;5065185;28;20029;-70
2023/10/04 08:04:09;;;;;;;3.30;0.90;;;;;;;20.57;73.50;101495.19;5061668;28;20476;-70
2023/10/04 08:06:39;;;;;;;3.38;0.70;;;;;;;20.51;72.82;101493.28;5063122;28;20393;-70
2023/10/04 08:09:05;;;;;;;2.08;0.65;;;;;;;20.39;74.52;101498.19;5060525;28;20051;-69
2023/10/04 08:11:33;;;;;;;2.60;0.90;;;;;;;20.41;75.09;101492.72;5060672;28;20048;-70
2023/10/04 08:13:59;;;;;;;3.33;1.02;;;;;;;20.44;74.53;101487.06;5061662;28;20028;-69
2023/10/04 08:16:24;;;;;;;2.00;0.60;;;;;;;20.40;75.63;101494.56;5060560;28;20034;-70
2023/10/04 08:18:50;;;;;;;3.88;1.48;;;;;;;20.38;73.82;101498.38;5066453;28;20484;-69
2023/10/04 08:21:15;;;;;;;3.25;1.15;;;;;;;20.39;73.56;101500.84;5065970;28;20094;-69
2023/10/04 08:23:41;;;;;;;2.78;1.13;;;;;;;20.43;73.63;101504.78;5061547;28;20056;-70
2023/10/04 08:26:16;;;;;;;2.42;1.15;;;;;;;20.47;71.71;101507.88;5064859;28;20043;-70
2023/10/04 08:28:42;;;;;;;2.40;0.88;;;;;;;20.44;74.21;101509.06;5062201;28;20033;-70
2023/10/04 08:31:09;;;;;;;2.50;0.80;;;;;;;20.38;75.44;101514.28;5063784;28;20042;-70
2023/10/04 08:33:34;;;;;;;3.70;1.15;;;;;;;20.33;75.11;101512.13;5060623;28;20378;-71
2023/10/04 08:36:08;;;;;;;6.15;1.17;;;;;;;20.35;74.96;101520.72;5060248;28;20035;-72
2023/10/04 08:38:33;;;;;;;3.97;1.15;;;;;;;20.49;74.30;101527.03;5067826;28;20033;-71
2023/10/04 08:40:59;;;;;;;6.45;1.05;;;;;;;20.54;74.18;101525.50;5059323;28;20045;-71
2023/10/04 08:43:24;;;;;;;2.92;1.23;;;;;;;20.55;72.10;101539.56;5065132;28;20118;-71
2023/10/04 08:45:51;;;;;;;3.97;1.33;;;;;;;20.58;74.43;101536.53;5066578;28;20031;-71
2023/10/04 08:48:17;;;;;;;2.65;0.80;;;;;;;20.60;74.74;101533.72;5057158;28;20052;-71
2023/10/04 08:51:16;;;;;;;7.38;1.30;;;;;;;20.52;73.40;101543.38;5059810;28;20055;-71
2023/10/04 08:53:42;;;;;;;2.70;1.20;;;;;;;20.57;72.06;101534.06;5062555;28;20136;-71
2023/10/04 08:56:14;;;;;;;3.40;1.38;;;;;;;20.68;72.82;101538.91;5065098;28;20179;-71
2023/10/04 08:58:40;;;;;;;5.65;1.52;;;;;;;20.67;74.79;101535.44;5058688;28;20032;-71
2023/10/04 09:01:06;;;;;;;2.85;1.50;;;;;;;20.68;73.25;101542.38;5061985;28;20435;-71
2023/10/04 09:03:33;;;;;;;4.93;1.15;;;;;;;20.73;74.28;101536.53;5054611;28;20071;-71
2023/10/04 09:05:59;;;;;;;3.05;1.30;;;;;;;20.76;71.88;101528.22;5069964;28;20111;-70
2023/10/04 09:08:25;;;;;;;2.05;1.15;;;;;;;20.79;75.28;101538.44;5055181;28;20029;-71
2023/10/04 09:10:54;;;;;;;3.42;1.48;;;;;;;20.80;74.85;101538.22;5062525;28;20035;-71
2023/10/04 09:13:20;;;;;;;6.03;1.27;;;;;;;20.78;74.60;101544.75;5060080;28;20495;-70
2023/10/04 09:15:45;;;;;;;2.65;0.93;;;;;;;20.77;73.68;101543.09;5058580;28;20029;-71
2023/10/04 09:18:11;;;;;;;3.10;1.42;;;;;;;20.88;73.50;101540.78;5055241;28;20044;-71
2023/10/04 09:20:36;;;;;;;5.03;1.70;;;;;;;20.96;73.99;101539.03;5052120;28;20036;-71
2023/10/04 09:23:15;;;;;;;3.33;1.00;;;;;;;20.99;71.26;101536.81;5052125;28;20041;-71
2023/10/04 09:25:41;;;;;;;6.43;1.95;;;;;;;21.03;73.92;101531.97;5060243;28;20037;-71
2023/10/04 09:28:09;;;;;;;2.80;0.90;;;;;;;21.09;72.71;101540.00;5073813;28;20039;-72
2023/10/04 09:30:36;;;;;;;2.47;1.45;;;;;;;21.12;72.73;101536.16;5059452;28;20028;-71
2023/10/04 09:33:21;;;;;;;3.55;1.40;;;;;;;21.20;71.59;101536.03;5051155;28;20480;-72
2023/10/04 09:35:47;;;;;;;4.20;1.67;;;;;;;21.16;73.85;101538.25;5062345;28;20498;-72
2023/10/04 09:38:20;;;;;;;5.22;1.65;;;;;;;21.17;75.30;101526.63;5067350;28;20068;-72
2023/10/04 09:40:53;;;;;;;4.28;1.42;;;;;;;21.13;74.43;101524.53;5068732;28;20079;-72
2023/10/04 09:43:36;;;;;;;3.05;1.50;;;;;;;21.05;73.48;101532.59;5069094;28;20036;-71
2023/10/04 09:46:06;;;;;;;3.47;1.38;;;;;;;21.08;74.89;101532.22;5069313;28;20059;-72
2023/10/04 09:48:33;;;;;;;4.07;1.35;;;;;;;21.11;75.77;101519.44;5066635;28;20040;-72
2023/10/04 09:51:00;;;;;;;4.95;1.73;;;;;;;21.10;76.52;101519.63;5069442;28;20177;-72
2023/10/04 09:53:27;;;;;;;2.97;1.23;;;;;;;21.04;76.66;101528.31;5068694;28;20028;-72
2023/10/04 09:55:54;;;;;;;2.85;1.10;;;;;;;21.04;77.83;101531.78;5063004;28;20117;-71
2023/10/04 09:58:24;;;;;;;4.10;1.75;;;;;;;21.01;78.23;101526.03;5064299;28;20119;-72
2023/10/04 10:00:52;;;;;;;3.83;1.33;;;;;;;21.01;78.71;101526.03;5066014;28;20329;-72
2023/10/04 10:03:23;;;;;;;3.42;1.05;;;;;;;21.02;79.29;101523.19;5064388;28;20384;-72
2023/10/04 10:05:50;;;;;;;2.35;1.20;;;;;;;21.06;79.25;101521.00;5068316;28;20040;-72
2023/10/04 10:08:20;;;;;;;3.20;1.83;;;;;;;21.14;78.74;101518.25;5072865;28;20029;-72
2023/10/04 10:10:47;;;;;;;2.53;1.48;;;;;;;21.18;78.13;101522.16;5063288;28;20546;-72
2023/10/04 10:13:15;;;;;;;2.03;1.00;;;;;;;21.24;78.04;101526.72;5060149;28;20033;-72
2023/10/04 10:15:41;;;;;;;3.90;1.08;;;;;;;21.26;77.59;101530.03;5059045;28;20380;-71
2023/10/04 10:18:08;;;;;;;2.80;1.45;;;;;;;21.35;77.28;101543.94;5065799;28;20024;-72
2023/10/04 10:20:34;;;;;;;3.25;1.35;;;;;;;21.45;77.39;101528.53;5073766;28;20094;-71
2023/10/04 10:22:59;;;;;;;3.72;1.25;;;;;;;21.52;76.65;101530.25;5059782;28;20033;-72
2023/10/04 10:25:35;;;;;;;3.17;1.15;;;;;;;21.62;77.10;101529.94;5066674;28;20035;-71
2023/10/04 10:28:02;;;;;;;3.25;1.05;;;;;;;21.59;77.55;101540.09;5061452;28;20032;-71
2023/10/04 10:30:31;;;;;;;3.00;0.90;;;;;;;21.51;75.86;101539.22;5061626;28;20028;-71
2023/10/04 10:32:58;;;;;;;4.55;0.80;;;;;;;21.54;75.15;101532.72;5065568;28;20024;-72
2023/10/04 10:35:48;;;;;;;2.13;1.17;;;;;;;21.44;74.73;101538.31;5059260;28;20033;-71
2023/10/04 10:38:43;;;;;;;3.47;1.10;;;;;;;21.34;76.04;101542.31;5063624;28;20047;-71
2023/10/04 10:41:29;;;;;;;2.10;1.00;;;;;;;21.32;77.36;101555.75;5065157;28;20075;-71
2023/10/04 10:44:13;;;;;;;2.25;0.80;;;;;;;21.23;75.83;101546.28;5071158;28;20040;-71
2023/10/04 10:47:06;;;;;;;3.10;0.60;;;;;;;21.22;74.29;101552.59;5066405;28;20032;-72
2023/10/04 10:49:41;;;;;;;1.70;0.70;;;;;;;21.21;74.85;101558.91;5057644;28;20025;-71
2023/10/04 10:52:31;;;;;;;1.10;0.38;;;;;;;21.24;72.01;101542.63;5056277;28;20503;-71
2023/10/04 10:54:58;;;;;;;1.77;0.50;;;;;;;21.33;71.97;101562.69;5059423;28;20096;-71
2023/10/04 10:57:28;;;;;;;3.90;0.60;;;;;;;21.41;69.91;101554.63;5066253;28;20047;-71
2023/10/04 10:59:56;;;;;;;1.38;0.40;;;;;;;21.30;73.02;101557.75;5064353;28;20028;-71
2023/10/04 11:02:22;;;;;;;2.25;0.40;;;;;;;21.23;71.14;101556.91;5075221;28;20051;-71
2023/10/04 11:04:53;;;;;;;3.20;0.70;;;;;;;21.22;68.61;101560.56;5066176;28;20119;-70
2023/10/04 11:07:21;;;;;;;2.72;0.47;;;;;;;21.38;66.21;101562.94;5064885;28;20028;-70
2023/10/04 11:09:51;;;;;;;1.45;0.50;;;;;;;21.40;68.57;101558.28;5061810;28;20120;-71
2023/10/04 11:12:18;;;;;;;1.58;0.43;;;;;;;21.38;67.84;101555.00;5067875;28;20024;-71
2023/10/04 11:14:44;;;;;;;1.10;0.40;;;;;;;21.39;66.28;101559.28;5064642;28;20083;-70
2023/10/04 11:17:14;;;;;;;1.20;0.30;;;;;;;21.42;66.14;101560.75;5071779;28;20036;-71
2023/10/04 11:19:41;;;;;;;1.95;0.47;;;;;;;21.34;67.63;101559.03;5070058;28;20039;-71
2023/10/04 11:22:08;;;;;;;1.42;0.50;;;;;;;21.25;68.92;101562.84;5070123;28;20119;-71
2023/10/04 11:24:35;;;;;;;3.63;0.50;;;;;;;21.19;68.68;101563.53;5068641;28;20392;-70
2023/10/04 11:27:01;;;;;;;1.73;0.50;;;;;;;21.26;66.85;101550.41;5069186;28;20028;-70
2023/10/04 11:29:29;;;;;;;2.25;0.52;;;;;;;21.36;67.07;101548.22;5068027;28;20156;-71
2023/10/04 11:31:56;;;;;;;1.10;0.50;;;;;;;21.50;65.05;101556.13;5069271;28;20071;-70
2023/10/04 11:34:22;;;;;;;4.05;0.40;;;;;;;21.55;65.16;101550.25;5067814;28;20017;-70